createdAt,value
2018-02-08T07:49:01.298Z,101611.38
2018-02-08T07:51:27.667Z,101616.77
2018-02-08T07:53:53.495Z,101617.69
2018-02-08T07:56:19.508Z,101621.05
2018-02-08T07:58:45.599Z,101628.06
2018-02-08T08:01:11.407Z,101630.90
2018-02-08T08:03:38.740Z,101630.52
2018-02-08T08:06:05.595Z,101637.15
2018-02-08T08:08:32.101Z,101635.97
2018-02-08T08:10:57.906Z,101638.77
2018-02-08T08:13:25.499Z,101638.67
2018-02-08T08:15:52.813Z,101644.64
2018-02-08T08:18:19.248Z,101642.59
2018-02-08T08:20:45.632Z,101645.62
2018-02-08T08:23:12.419Z,101649.03
2018-02-08T08:25:38.262Z,101645.59
2018-02-08T08:28:05.378Z,101652.13
2018-02-08T08:30:32.330Z,101651.37
2018-02-08T08:32:58.307Z,101654.80
2018-02-08T08:35:24.992Z,101658.85
2018-02-08T08:37:50.847Z,101655.41
2018-02-08T08:40:17.445Z,101653.80
2018-02-08T08:42:43.226Z,101656.59
2018-02-08T08:45:10.926Z,101656.95
2018-02-08T08:47:37.358Z,101663.13
2018-02-08T08:50:03.338Z,101661.88
2018-02-08T08:52:29.813Z,101659.48
2018-02-08T08:54:55.905Z,101654.09
2018-02-08T08:57:23.088Z,101657.51
2018-02-08T08:59:49.094Z,101654.02
2018-02-08T09:02:14.877Z,101654.11
2018-02-08T09:04:40.662Z,101655.73
2018-02-08T09:07:07.694Z,101648.96
2018-02-08T09:09:33.511Z,101653.92
2018-02-08T09:11:59.331Z,101659.28
2018-02-08T09:14:25.163Z,101648.30
2018-02-08T09:16:50.952Z,101655.19
2018-02-08T09:19:16.988Z,101656.56
2018-02-08T09:21:42.962Z,101650.95
2018-02-08T09:24:08.741Z,101650.47
2018-02-08T09:26:34.859Z,101644.93
2018-02-08T09:29:00.682Z,101646.92
2018-02-08T09:31:26.925Z,101643.31
2018-02-08T09:33:52.744Z,101637.83
2018-02-08T09:36:19.060Z,101641.29
2018-02-08T09:38:45.688Z,101639.69
2018-02-08T09:41:11.907Z,101638.36
2018-02-08T09:43:37.710Z,101644.52
2018-02-08T09:46:04.284Z,101639.41
2018-02-08T09:48:30.150Z,101641.51
2018-02-08T09:50:55.938Z,101652.28
2018-02-08T09:53:28.629Z,101652.22
2018-02-08T09:55:55.015Z,101651.83
2018-02-08T09:58:22.110Z,101657.22
2018-02-08T10:00:49.724Z,101654.83
2018-02-08T10:03:17.498Z,101651.86
2018-02-08T10:05:44.329Z,101660.73
2018-02-08T10:08:12.575Z,101659.91
2018-02-08T10:10:38.422Z,101659.84
2018-02-08T10:13:04.204Z,101667.73
2018-02-08T10:15:29.987Z,101666.75
2018-02-08T10:17:55.847Z,101672.82
2018-02-08T10:20:21.640Z,101666.00
2018-02-08T10:22:47.439Z,101676.23
2018-02-08T10:25:13.260Z,101679.56
2018-02-08T10:27:39.072Z,101674.54
2018-02-08T10:30:04.976Z,101676.45
2018-02-08T10:32:30.796Z,101679.80
2018-02-08T10:34:56.611Z,101680.80
2018-02-08T10:37:22.390Z,101672.14
2018-02-08T10:39:48.234Z,101667.89
2018-02-08T10:42:14.036Z,101667.81
2018-02-08T10:44:39.839Z,101668.22
2018-02-08T10:47:06.218Z,101664.88
2018-02-08T10:49:32.206Z,101672.10
2018-02-08T10:51:58.011Z,101676.66
2018-02-08T10:54:23.819Z,101670.64
2018-02-08T10:56:49.711Z,101672.06
2018-02-08T10:59:15.788Z,101657.23
2018-02-08T11:01:41.605Z,101673.60
2018-02-08T11:04:07.396Z,101672.55
2018-02-08T11:06:33.180Z,101657.88
2018-02-08T11:08:59.007Z,101670.59
2018-02-08T11:11:24.814Z,101665.72
2018-02-08T11:13:50.644Z,101660.55
2018-02-08T11:16:16.462Z,101665.77
2018-02-08T11:18:42.483Z,101661.95
2018-02-08T11:21:08.569Z,101656.83
2018-02-08T11:23:34.370Z,101657.97
2018-02-08T11:26:00.155Z,101649.97
2018-02-08T11:28:26.546Z,101655.09
2018-02-08T11:30:52.437Z,101658.02
2018-02-08T11:33:18.262Z,101657.27
2018-02-08T11:35:44.071Z,101652.58
2018-02-08T11:38:09.891Z,101655.66
2018-02-08T11:40:35.714Z,101658.09
2018-02-08T11:43:01.516Z,101651.42
2018-02-08T11:45:27.687Z,101655.91
2018-02-08T11:47:53.475Z,101652.26
2018-02-08T11:50:19.278Z,101653.81
2018-02-08T11:52:45.343Z,101651.88
2018-02-08T11:55:11.180Z,101651.98
2018-02-08T11:57:36.948Z,101644.38
2018-02-08T12:00:02.777Z,101649.59
2018-02-08T12:02:28.631Z,101651.84
2018-02-08T12:04:54.423Z,101645.02
2018-02-08T12:07:20.205Z,101651.58
2018-02-08T12:09:46.177Z,101651.83
2018-02-08T12:12:11.962Z,101646.13
2018-02-08T12:14:37.742Z,101638.69
2018-02-08T12:17:03.536Z,101635.03
2018-02-08T12:19:29.321Z,101633.97
2018-02-08T12:21:55.136Z,101627.95
2018-02-08T12:24:20.950Z,101634.98
2018-02-08T12:26:46.750Z,101629.41
2018-02-08T12:29:12.570Z,101621.49
2018-02-08T12:31:38.375Z,101623.23
2018-02-08T12:34:04.180Z,101620.72
2018-02-08T12:36:29.966Z,101609.80
2018-02-08T12:38:55.771Z,101609.06
2018-02-08T12:41:21.563Z,101605.31
2018-02-08T12:43:47.351Z,101601.01
2018-02-08T12:46:15.880Z,101594.97
2018-02-08T12:48:41.659Z,101596.11
2018-02-08T12:51:07.445Z,101593.45
2018-02-08T12:53:33.275Z,101598.76
2018-02-08T12:55:59.091Z,101590.03
2018-02-08T12:58:24.883Z,101588.19
2018-02-08T13:00:50.931Z,101585.42
2018-02-08T13:03:16.710Z,101585.02
2018-02-08T13:05:42.518Z,101575.84
2018-02-08T13:08:08.684Z,101577.55
2018-02-08T13:10:34.467Z,101572.05
2018-02-08T13:13:07.359Z,101566.66
2018-02-08T13:15:33.176Z,101568.85
2018-02-08T13:17:58.962Z,101568.06
2018-02-08T13:20:24.767Z,101571.48
2018-02-08T13:22:50.648Z,101570.80
2018-02-08T13:25:16.458Z,101565.65
2018-02-08T13:27:42.351Z,101566.98
2018-02-08T13:30:08.867Z,101565.09
2018-02-08T13:32:35.012Z,101567.27
2018-02-08T13:35:00.826Z,101563.38
2018-02-08T13:37:26.927Z,101556.13
2018-02-08T13:39:53.685Z,101557.06
2018-02-08T13:42:19.505Z,101561.30
2018-02-08T13:44:45.296Z,101549.79
2018-02-08T13:47:17.182Z,101553.27
2018-02-08T13:49:42.992Z,101543.85
2018-02-08T13:52:16.737Z,101541.73
2018-02-08T13:54:45.714Z,101547.72
2018-02-08T13:57:17.509Z,101541.45
2018-02-08T13:59:49.371Z,101540.20
2018-02-08T14:02:15.174Z,101541.44
2018-02-08T14:04:40.982Z,101532.39
2018-02-08T14:07:06.876Z,101521.67
2018-02-08T14:09:32.667Z,101525.12
2018-02-08T14:11:58.472Z,101521.59
2018-02-08T14:14:24.588Z,101517.27
2018-02-08T14:16:50.399Z,101519.35
2018-02-08T14:19:16.676Z,101515.65
2018-02-08T14:21:42.527Z,101510.84
2018-02-08T14:24:08.706Z,101514.54
2018-02-08T14:26:34.510Z,101508.05
2018-02-08T14:29:00.488Z,101510.87
2018-02-08T14:31:26.684Z,101509.81
2018-02-08T14:33:52.511Z,101509.22
2018-02-08T14:36:18.681Z,101511.85
2018-02-08T14:38:44.560Z,101505.72
2018-02-08T14:41:11.022Z,101503.95
2018-02-08T14:43:37.723Z,101506.62
2018-02-08T14:46:04.691Z,101503.53
2018-02-08T14:48:30.548Z,101500.91
2018-02-08T14:50:58.490Z,101508.67
2018-02-08T14:53:24.274Z,101503.02
2018-02-08T14:55:50.188Z,101504.24
2018-02-08T14:58:16.163Z,101499.95
2018-02-08T15:00:41.961Z,101507.20
2018-02-08T15:03:08.326Z,101503.11
2018-02-08T15:05:34.113Z,101507.36
2018-02-08T15:08:00.104Z,101504.73
2018-02-08T15:10:26.362Z,101508.52
2018-02-08T15:12:52.146Z,101503.49
2018-02-08T15:15:17.936Z,101508.86
2018-02-08T15:17:43.755Z,101510.06
2018-02-08T15:20:09.547Z,101505.13
2018-02-08T15:22:35.691Z,101505.34
2018-02-08T15:25:01.476Z,101509.88
2018-02-08T15:27:27.284Z,101505.30
2018-02-08T15:29:53.164Z,101502.75
2018-02-08T15:32:20.398Z,101512.43
2018-02-08T15:34:46.189Z,101516.70
2018-02-08T15:37:12.354Z,101513.87
2018-02-08T15:39:39.478Z,101514.93
2018-02-08T15:42:05.279Z,101511.36
2018-02-08T15:44:31.332Z,101509.73
2018-02-08T15:46:57.110Z,101519.64
2018-02-08T15:49:22.904Z,101518.50
2018-02-08T15:51:48.892Z,101508.57
2018-02-08T15:54:14.674Z,101515.66
2018-02-08T15:56:40.467Z,101522.23
2018-02-08T15:59:06.386Z,101525.41
2018-02-08T16:01:32.206Z,101527.81
2018-02-08T16:03:58.243Z,101526.86
2018-02-08T16:06:24.306Z,101519.98
2018-02-08T16:08:50.427Z,101521.41
2018-02-08T16:11:16.700Z,101520.17
2018-02-08T16:13:42.483Z,101525.13
2018-02-08T16:16:08.308Z,101528.45
2018-02-08T16:18:34.106Z,101531.19
2018-02-08T16:21:00.148Z,101533.38
2018-02-08T16:23:25.923Z,101532.17
2018-02-08T16:25:51.710Z,101525.02
2018-02-08T16:28:17.546Z,101531.84
2018-02-08T16:30:43.323Z,101527.17
2018-02-08T16:33:09.100Z,101526.89
2018-02-08T16:35:35.042Z,101535.78
2018-02-08T16:38:00.843Z,101534.22
2018-02-08T16:40:26.623Z,101533.51
2018-02-08T16:42:52.541Z,101530.61
2018-02-08T16:45:18.571Z,101528.37
2018-02-08T16:47:44.383Z,101524.51
2018-02-08T16:50:10.574Z,101521.41
2018-02-08T16:52:36.942Z,101518.69
2018-02-08T16:55:02.799Z,101511.52
2018-02-08T16:57:28.662Z,101517.09
2018-02-08T16:59:54.499Z,101515.73
2018-02-08T17:02:20.286Z,101509.23
2018-02-08T17:04:46.207Z,101511.16
2018-02-08T17:07:12.007Z,101511.13
2018-02-08T17:09:37.800Z,101517.98
2018-02-08T17:12:03.964Z,101523.45
2018-02-08T17:14:29.758Z,101521.45
2018-02-08T17:16:55.535Z,101526.03
2018-02-08T17:19:21.618Z,101523.28
2018-02-08T17:21:47.422Z,101523.46
2018-02-08T17:24:13.206Z,101525.73
2018-02-08T17:26:39.028Z,101523.44
2018-02-08T17:29:04.895Z,101524.60
2018-02-08T17:31:30.662Z,101527.59
2018-02-08T17:33:56.625Z,101532.55
2018-02-08T17:36:22.410Z,101523.68
2018-02-08T17:38:48.219Z,101528.08
2018-02-08T17:41:14.139Z,101531.38
2018-02-08T17:43:39.941Z,101535.52
2018-02-08T17:46:05.724Z,101531.00
2018-02-08T17:48:31.614Z,101533.59
2018-02-08T17:50:57.510Z,101532.23
2018-02-08T17:53:23.368Z,101506.91
2018-02-08T17:55:49.482Z,101529.05
2018-02-08T17:58:15.297Z,101530.38
2018-02-08T18:00:41.111Z,101532.17
2018-02-08T18:03:06.935Z,101528.64
2018-02-08T18:05:32.735Z,101532.34
2018-02-08T18:07:58.510Z,101529.92
2018-02-08T18:10:24.524Z,101533.28
2018-02-08T18:12:50.278Z,101530.47
2018-02-08T18:15:16.105Z,101523.06
2018-02-08T18:17:41.926Z,101532.16
2018-02-08T18:20:07.720Z,101529.98
2018-02-08T18:22:33.526Z,101532.78
2018-02-08T18:24:59.535Z,101532.55
2018-02-08T18:27:25.334Z,101534.93
2018-02-08T18:29:51.131Z,101534.83
2018-02-08T18:32:16.953Z,101531.36
2018-02-08T18:34:42.762Z,101529.36
2018-02-08T18:37:08.566Z,101534.86
2018-02-08T18:39:34.547Z,101540.05
2018-02-08T18:42:00.326Z,101541.09
2018-02-08T18:44:26.121Z,101545.53
2018-02-08T18:46:51.936Z,101544.12
2018-02-08T18:49:17.743Z,101534.81
2018-02-08T18:51:43.556Z,101535.48
2018-02-08T18:54:09.769Z,101540.29
2018-02-08T18:56:35.892Z,101543.56
2018-02-08T18:59:01.715Z,101540.59
2018-02-08T19:01:27.510Z,101532.97
2018-02-08T19:03:53.295Z,101531.92
2018-02-08T19:06:19.087Z,101534.52
2018-02-08T19:08:44.894Z,101528.20
2018-02-08T19:11:10.683Z,101521.95
2018-02-08T19:13:36.479Z,101524.93
2018-02-08T19:16:02.292Z,101520.61
2018-02-08T19:18:28.087Z,101523.34
2018-02-08T19:20:53.878Z,101520.15
2018-02-08T19:23:19.694Z,101515.84
2018-02-08T19:25:45.519Z,101515.63
2018-02-08T19:28:11.324Z,101518.63
2018-02-08T19:30:37.980Z,101521.42
2018-02-08T19:33:04.323Z,101518.88
2018-02-08T19:35:30.602Z,101519.23
2018-02-08T19:37:56.387Z,101518.73
2018-02-08T19:40:22.497Z,101521.64
2018-02-08T19:42:48.406Z,101510.45
2018-02-08T19:45:14.217Z,101510.19
2018-02-08T19:47:40.018Z,101512.94
2018-02-08T19:50:05.965Z,101505.50
2018-02-08T19:52:31.765Z,101515.31
2018-02-08T19:54:58.296Z,101507.15
2018-02-08T19:57:24.092Z,101504.63
2018-02-08T19:59:50.636Z,101502.12
2018-02-08T20:02:16.423Z,101505.91
2018-02-08T20:04:43.137Z,101498.46
2018-02-08T20:07:09.031Z,101506.91
2018-02-08T20:09:35.326Z,101507.03
2018-02-08T20:12:01.121Z,101503.38
2018-02-08T20:14:29.200Z,101508.81
2018-02-08T20:16:56.554Z,101503.95
2018-02-08T20:19:22.625Z,101508.91
2018-02-08T20:21:48.742Z,101505.23
2018-02-08T20:24:14.635Z,101503.83
2018-02-08T20:26:41.093Z,101501.34
2018-02-08T20:29:07.638Z,101505.60
2018-02-08T20:31:33.560Z,101500.81
2018-02-08T20:33:59.655Z,101498.52
2018-02-08T20:36:25.911Z,101498.35
2018-02-08T20:38:51.716Z,101499.31
2018-02-08T20:41:17.531Z,101498.88
2018-02-08T20:43:43.952Z,101501.19
2018-02-08T20:46:09.780Z,101496.10
2018-02-08T20:48:35.867Z,101496.58
2018-02-08T20:51:01.695Z,101499.53
2018-02-08T20:53:28.050Z,101500.00
2018-02-08T20:55:53.847Z,101492.38
2018-02-08T20:58:20.096Z,101488.66
2018-02-08T21:00:45.939Z,101493.91
2018-02-08T21:03:11.930Z,101486.34
2018-02-08T21:05:37.790Z,101485.61
2018-02-08T21:08:03.607Z,101492.23
2018-02-08T21:10:29.383Z,101485.90
2018-02-08T21:12:55.198Z,101487.95
2018-02-08T21:15:21.423Z,101480.73
2018-02-08T21:17:47.214Z,101486.83
2018-02-08T21:20:13.726Z,101481.30
2018-02-08T21:22:39.627Z,101479.70
2018-02-08T21:25:05.442Z,101481.86
2018-02-08T21:27:31.283Z,101483.77
2018-02-08T21:29:57.090Z,101476.89
2018-02-08T21:32:22.884Z,101468.64
2018-02-08T21:34:49.391Z,101472.25
2018-02-08T21:37:15.183Z,101463.34
2018-02-08T21:39:41.358Z,101470.34
2018-02-08T21:42:07.167Z,101476.13
2018-02-08T21:44:33.414Z,101470.66
2018-02-08T21:46:59.230Z,101469.86
2018-02-08T21:49:26.085Z,101464.05
2018-02-08T21:51:51.882Z,101458.38
2018-02-08T21:54:17.687Z,101459.62
2018-02-08T21:56:43.491Z,101454.17
2018-02-08T21:59:09.322Z,101458.69
2018-02-08T22:01:35.143Z,101459.06
2018-02-08T22:04:01.322Z,101455.73
2018-02-08T22:06:28.300Z,101453.38
2018-02-08T22:08:54.366Z,101455.05
2018-02-08T22:11:20.427Z,101430.42
2018-02-08T22:13:46.234Z,101454.84
2018-02-08T22:16:12.015Z,101450.80
2018-02-08T22:18:37.813Z,101446.96
2018-02-08T22:21:03.634Z,101443.83
2018-02-08T22:23:29.420Z,101441.14
2018-02-08T22:25:55.387Z,101446.47
2018-02-08T22:28:21.195Z,101445.88
2018-02-08T22:30:47.248Z,101443.03
2018-02-08T22:33:13.055Z,101442.50
2018-02-08T22:35:38.847Z,101440.02
2018-02-08T22:38:04.691Z,101434.27
2018-02-08T22:40:30.513Z,101439.22
2018-02-08T22:42:56.318Z,101436.61
2018-02-08T22:45:22.274Z,101433.11
2018-02-08T22:47:48.073Z,101430.14
2018-02-08T22:50:13.917Z,101435.85
2018-02-08T22:52:39.703Z,101437.67
2018-02-08T22:55:05.491Z,101433.81
2018-02-08T22:57:31.557Z,101424.08
2018-02-08T22:59:57.390Z,101435.09
2018-02-08T23:02:23.194Z,101430.73
2018-02-08T23:04:49.310Z,101423.31
2018-02-08T23:07:15.104Z,101425.02
2018-02-08T23:09:40.895Z,101425.41
2018-02-08T23:12:06.727Z,101422.14
2018-02-08T23:14:32.515Z,101423.83
2018-02-08T23:16:58.318Z,101427.00
2018-02-08T23:19:24.113Z,101422.28
2018-02-08T23:21:49.893Z,101422.12
2018-02-08T23:24:15.672Z,101425.39
2018-02-08T23:26:41.566Z,101417.92
2018-02-08T23:29:07.376Z,101422.64
2018-02-08T23:31:33.199Z,101416.97
2018-02-08T23:33:59.004Z,101415.58
2018-02-08T23:36:24.804Z,101417.11
2018-02-08T23:38:50.635Z,101415.00
2018-02-08T23:41:16.428Z,101409.87
2018-02-08T23:43:42.207Z,101410.86
2018-02-08T23:46:08.331Z,101408.62
2018-02-08T23:48:34.122Z,101404.11
2018-02-08T23:50:59.910Z,101403.25
2018-02-08T23:53:25.711Z,101410.23
2018-02-08T23:55:51.495Z,101403.73
2018-02-08T23:58:17.291Z,101406.73
